Time;durP1;ratioP1;P1;durP2;ratioP2;P2;SDS_P1;SDS_P2;PMS_P1;PMS_P2;Temp;Humidity;BMP_temperature;BMP_pressure;BME280_temperature;BME280_humidity;BME280_pressure;Samples;Min_cycle;Max_cycle;Signal;HPM_P1;HPM_P2
2021/11/18 22:13:47;;;;;;;22.50;8.70;;;;;;;6.97;71.14;99560.73;102945;1318;108019;-71
2021/11/18 22:16:23;;;;;;;23.20;8.10;;;;;;;6.99;71.07;99555.91;102836;1323;97929;-71
2021/11/18 22:18:56;;;;;;;24.60;9.00;;;;;;;6.99;71.01;99547.05;102787;1325;98611;-71
2021/11/18 22:21:32;;;;;;;21.80;8.50;;;;;;;7.01;70.75;99543.63;102840;1325;111654;-71
2021/11/18 22:24:05;;;;;;;26.60;9.80;;;;;;;7.01;70.89;99540.80;102808;1320;97891;-68
2021/11/18 22:26:38;;;;;;;24.50;9.10;;;;;;;7.02;70.70;99541.13;102902;1320;108344;-70
2021/11/18 22:29:13;;;;;;;25.70;9.20;;;;;;;7.01;70.82;99538.52;102932;1320;95756;-71
2021/11/18 22:31:41;;;;;;;22.80;9.20;;;;;;;7.02;70.83;99536.87;102920;1319;97909;-71
2021/11/18 22:34:12;;;;;;;26.60;9.10;;;;;;;7.04;70.79;99538.38;102751;1322;111599;-71
2021/11/18 22:37:00;;;;;;;23.60;9.30;;;;;;;7.05;70.64;99537.25;102628;1322;98603;-71
2021/11/18 22:39:35;;;;;;;23.90;8.70;;;;;;;7.05;70.83;99530.03;102868;1321;108274;-71
2021/11/18 22:42:27;;;;;;;23.00;8.90;;;;;;;7.05;70.55;99528.44;102792;1321;97941;-71
2021/11/18 22:44:59;;;;;;;24.70;9.10;;;;;;;7.05;70.69;99523.35;102823;1325;97890;-72
2021/11/18 22:47:31;;;;;;;22.90;9.20;;;;;;;7.06;70.91;99518.70;102881;1321;111023;-73
2021/11/18 22:50:00;;;;;;;24.60;9.10;;;;;;;7.06;70.69;99517.63;102946;1324;95304;-73
2021/11/18 22:52:28;;;;;;;23.10;8.10;;;;;;;7.07;70.57;99518.12;102953;1316;107701;-72
2021/11/18 22:55:05;;;;;;;23.60;9.40;;;;;;;7.07;70.65;99518.48;102824;1321;98014;-72
2021/11/18 22:57:33;;;;;;;24.50;9.30;;;;;;;7.07;70.62;99521.45;102546;1318;97554;-73
2021/11/18 23:00:08;;;;;;;21.50;8.00;;;;;;;7.07;70.40;99521.99;102884;1318;111477;-70
2021/11/18 23:02:36;;;;;;;24.90;9.10;;;;;;;7.06;70.41;99516.92;103008;1325;98541;-72
2021/11/18 23:05:06;;;;;;;21.00;8.20;;;;;;;7.06;70.38;99509.67;102732;1318;106837;-70
2021/11/18 23:07:35;;;;;;;20.90;9.20;;;;;;;7.07;70.24;99507.88;102667;1321;97996;-71
2021/11/18 23:10:07;;;;;;;22.70;9.30;;;;;;;7.06;70.34;99506.68;102915;1319;97912;-73
2021/11/18 23:12:36;;;;;;;24.70;9.20;;;;;;;7.06;70.26;99499.45;102874;1318;111337;-71
2021/11/18 23:15:10;;;;;;;23.90;9.10;;;;;;;7.05;69.85;99496.02;102923;1323;95766;-71
2021/11/18 23:17:39;;;;;;;24.30;8.40;;;;;;;7.04;70.05;99491.80;102800;1326;108867;-71
2021/11/18 23:20:09;;;;;;;23.90;9.30;;;;;;;7.04;70.08;99491.65;102934;1325;95301;-71
2021/11/18 23:22:42;;;;;;;26.10;8.90;;;;;;;7.04;69.95;99490.56;102909;1320;95308;-70
2021/11/18 23:25:15;;;;;;;22.40;8.60;;;;;;;7.05;70.14;99488.95;103026;1319;111608;-72
2021/11/18 23:27:46;;;;;;;20.00;7.60;;;;;;;7.05;70.05;99485.05;102853;1322;97901;-71
2021/11/18 23:30:20;;;;;;;21.60;8.00;;;;;;;7.05;69.88;99480.80;102860;1319;107642;-72
2021/11/18 23:32:49;;;;;;;21.50;8.60;;;;;;;7.06;69.89;99474.77;102805;1316;97860;-71
2021/11/18 23:35:19;;;;;;;25.10;9.70;;;;;;;7.07;69.93;99466.46;102837;1322;97880;-70
2021/11/18 23:37:49;;;;;;;23.80;8.20;;;;;;;7.08;69.84;99469.04;102907;1319;111504;-70
2021/11/18 23:40:19;;;;;;;27.10;9.80;;;;;;;7.09;69.82;99463.00;102943;1320;97909;-72
2021/11/18 23:42:50;;;;;;;21.10;8.40;;;;;;;7.10;69.87;99455.88;102767;1322;107868;-71
2021/11/18 23:45:21;;;;;;;21.20;7.40;;;;;;;7.11;69.75;99440.48;102857;1319;98036;-70
2021/11/18 23:47:52;;;;;;;24.00;8.40;;;;;;;7.12;69.75;99433.19;102875;1319;97910;-71
2021/11/18 23:50:27;;;;;;;23.20;7.60;;;;;;;7.13;69.88;99425.02;102883;1324;111433;-71
2021/11/18 23:52:55;;;;;;;22.00;8.70;;;;;;;7.14;69.57;99430.27;102938;1318;95612;-71
2021/11/18 23:55:28;;;;;;;25.30;8.80;;;;;;;7.15;69.68;99432.70;102782;1320;107866;-75
2021/11/18 23:57:59;;;;;;;22.30;8.70;;;;;;;7.15;69.46;99430.58;102754;1325;99103;-72
